Time;durP1;ratioP1;P1;durP2;ratioP2;P2;SDS_P1;SDS_P2;PMS_P1;PMS_P2;Temp;Humidity;BMP_temperature;BMP_pressure;BME280_temperature;BME280_humidity;BME280_pressure;Samples;Min_cycle;Max_cycle;Signal;HPM_P1;HPM_P2
2022/06/11 00:00:28;;;;;;;8.70;7.43;;;16.90;99.90;;;;;;5002948;28;20065;-78
2022/06/11 00:02:54;;;;;;;10.40;7.05;;;16.90;99.90;;;;;;5014442;28;20054;-78
2022/06/11 00:05:49;;;;;;;8.00;7.00;;;16.90;99.90;;;;;;5038005;28;20042;-78
2022/06/11 00:11:32;;;;;;;11.40;7.68;;;16.90;99.90;;;;;;5036750;28;20038;-78
2022/06/11 00:14:15;;;;;;;9.88;8.93;;;17.00;99.90;;;;;;5000629;28;20133;-77
2022/06/11 00:16:44;;;;;;;12.88;9.40;;;16.90;99.90;;;;;;5012051;28;20034;-77
2022/06/11 00:19:39;;;;;;;10.73;8.80;;;16.80;99.90;;;;;;5012410;28;20497;-78
2022/06/11 00:22:30;;;;;;;14.73;10.65;;;16.90;99.90;;;;;;5011273;28;20049;-78
2022/06/11 00:25:32;;;;;;;14.95;10.13;;;16.90;99.90;;;;;;4993960;28;20053;-78
2022/06/11 00:28:39;;;;;;;15.63;10.13;;;17.00;99.90;;;;;;4999016;28;20041;-78
2022/06/11 00:31:41;;;;;;;15.73;9.93;;;17.00;99.90;;;;;;4962041;28;20051;-78
2022/06/11 00:35:08;;;;;;;;;;;;;;;;;;;;;
2022/06/11 00:38:24;;;;;;;17.17;9.77;;;16.90;99.90;;;;;;4952147;28;20062;-78
2022/06/11 00:44:28;;;;;;;13.52;8.18;;;16.80;99.90;;;;;;5012070;28;20053;-78
2022/06/11 00:47:30;;;;;;;15.93;10.23;;;16.70;99.90;;;;;;5027998;28;20049;-78
2022/06/11 00:50:37;;;;;;;13.35;10.63;;;16.70;99.90;;;;;;5011507;28;20043;-78
2022/06/11 00:55:39;;;;;;;11.55;7.47;;;16.60;99.90;;;;;;4940769;26;20037;-78
2022/06/11 00:58:35;;;;;;;11.50;8.00;;;16.60;99.90;;;;;;5014426;28;20560;-78
2022/06/11 01:01:32;;;;;;;12.20;6.97;;;16.60;99.90;;;;;;5012004;28;20121;-78
2022/06/11 01:12:16;;;;;;;13.07;6.95;;;16.50;99.90;;;;;;4935417;28;20590;-78
2022/06/11 01:34:50;;;;;;;8.35;7.47;;;15.90;99.90;;;;;;4917087;29;20051;-79
2022/06/11 01:38:06;;;;;;;12.60;8.20;;;15.60;99.90;;;;;;4877948;29;20563;-78
2022/06/11 01:41:11;;;;;;;10.95;8.18;;;15.60;99.90;;;;;;4914634;29;20058;-78
2022/06/11 01:44:18;;;;;;;11.05;8.02;;;15.60;99.90;;;;;;5007778;28;20045;-79
2022/06/11 01:47:04;;;;;;;9.05;6.35;;;15.50;99.90;;;;;;5011801;28;20045;-78
2022/06/11 01:49:51;;;;;;;9.15;6.28;;;15.50;99.90;;;;;;5014676;28;20047;-78
2022/06/11 01:52:58;;;;;;;12.95;6.10;;;15.50;99.90;;;;;;5010234;28;20072;-78
2022/06/11 01:55:37;;;;;;;14.27;9.65;;;15.50;99.90;;;;;;5010459;28;20045;-78
2022/06/11 01:58:29;;;;;;;10.85;8.57;;;15.50;99.90;;;;;;5011781;28;20037;-79
2022/06/11 02:01:09;;;;;;;11.77;8.00;;;15.40;99.90;;;;;;5013527;28;20032;-79
2022/06/11 02:03:51;;;;;;;7.15;6.38;;;15.30;99.90;;;;;;5009950;28;20038;-78
2022/06/11 02:06:42;;;;;;;11.45;6.88;;;15.30;99.90;;;;;;5011157;28;20033;-79
2022/06/11 02:09:20;;;;;;;13.88;5.55;;;15.20;99.90;;;;;;5011952;28;20499;-79
2022/06/11 02:11:50;;;;;;;13.57;6.93;;;15.20;99.90;;;;;;5010153;28;20131;-79
2022/06/11 02:14:36;;;;;;;13.23;6.78;;;15.20;99.90;;;;;;5013313;28;20048;-79
2022/06/11 02:17:11;;;;;;;20.23;9.68;;;15.00;99.90;;;;;;5008982;28;20476;-79
2022/06/11 02:19:41;;;;;;;;;;;15.10;99.90;;;;;;5027953;28;20068;-79
2022/06/11 02:22:18;;;;;;;13.65;7.80;;;15.10;99.90;;;;;;5026643;28;20371;-79
2022/06/11 02:24:56;;;;;;;13.95;9.25;;;15.10;99.90;;;;;;5010331;28;20049;-79
2022/06/11 02:27:26;;;;;;;10.55;8.88;;;15.00;99.90;;;;;;5010058;28;20111;-79
2022/06/11 02:29:54;;;;;;;13.50;9.50;;;15.00;99.90;;;;;;5015522;28;20046;-79
2022/06/11 02:32:23;;;;;;;15.43;10.10;;;15.00;99.90;;;;;;5009882;28;20082;-79
2022/06/11 02:34:57;;;;;;;12.43;9.02;;;14.90;99.90;;;;;;5013264;28;20041;-79
2022/06/11 02:37:30;;;;;;;16.48;11.45;;;14.90;99.90;;;;;;5011698;28;20095;-79
2022/06/11 02:40:00;;;;;;;18.17;11.10;;;14.90;99.90;;;;;;5009920;28;20109;-79
2022/06/11 02:42:26;;;;;;;17.88;13.52;;;14.90;99.90;;;;;;5007825;28;20084;-79
2022/06/11 02:44:52;;;;;;;17.42;13.52;;;14.80;99.90;;;;;;4998178;28;20136;-79
2022/06/11 02:47:20;;;;;;;17.58;14.48;;;15.00;99.90;;;;;;5025917;28;20052;-79
2022/06/11 02:49:47;;;;;;;18.08;13.80;;;15.00;99.90;;;;;;5012120;28;20038;-79
2022/06/11 02:52:16;;;;;;;16.02;13.40;;;15.00;99.90;;;;;;5009034;28;20052;-79
2022/06/11 02:54:43;;;;;;;15.85;13.38;;;15.00;99.90;;;;;;5010431;28;20045;-79
2022/06/11 02:57:13;;;;;;;20.40;13.20;;;15.00;99.90;;;;;;5009102;28;20541;-79
2022/06/11 02:59:40;;;;;;;19.80;12.80;;;15.00;99.90;;;;;;5032545;28;20088;-80
2022/06/11 03:02:06;;;;;;;14.35;12.68;;;15.10;99.90;;;;;;5010647;28;20033;-79
2022/06/11 03:04:31;;;;;;;17.23;12.98;;;15.10;99.90;;;;;;5028048;28;20040;-80
2022/06/11 03:06:58;;;;;;;19.95;12.05;;;15.10;99.90;;;;;;5009875;28;20041;-79
2022/06/11 03:09:32;;;;;;;20.38;11.23;;;15.00;99.90;;;;;;5011940;28;20041;-79
2022/06/11 03:11:59;;;;;;;19.13;13.80;;;15.00;99.90;;;;;;4994598;28;20041;-80
2022/06/11 03:14:25;;;;;;;15.85;11.50;;;15.00;99.90;;;;;;5030167;28;20068;-79
2022/06/11 03:16:50;;;;;;;18.17;11.73;;;14.90;99.90;;;;;;5012648;28;20041;-79
2022/06/11 03:19:20;;;;;;;16.40;13.27;;;14.90;99.90;;;;;;5012472;28;20399;-80
2022/06/11 03:21:51;;;;;;;17.83;13.32;;;14.80;99.90;;;;;;5011063;28;20116;-79
2022/06/11 03:24:17;;;;;;;18.77;13.95;;;14.80;99.90;;;;;;5012055;28;20522;-79
2022/06/11 03:26:43;;;;;;;15.45;11.40;;;14.70;99.90;;;;;;5009170;28;20060;-79
2022/06/11 03:29:10;;;;;;;16.20;11.98;;;14.70;99.90;;;;;;5011406;28;20037;-79
2022/06/11 03:31:35;;;;;;;18.00;12.93;;;14.70;99.90;;;;;;5011239;28;20499;-79
2022/06/11 03:34:02;;;;;;;20.98;12.25;;;14.70;99.90;;;;;;5029618;28;20171;-79
2022/06/11 03:36:28;;;;;;;17.33;12.02;;;14.60;99.90;;;;;;5012428;28;20419;-79
2022/06/11 03:38:53;;;;;;;14.52;10.23;;;14.50;99.90;;;;;;5010768;28;20041;-79
2022/06/11 03:41:21;;;;;;;17.42;10.85;;;14.50;99.90;;;;;;5008711;28;20033;-79
2022/06/11 03:43:48;;;;;;;14.88;11.90;;;14.50;99.90;;;;;;5011022;28;20487;-79
2022/06/11 03:46:14;;;;;;;17.90;11.65;;;14.50;99.90;;;;;;5009539;28;20048;-79
2022/06/11 03:48:40;;;;;;;13.65;11.48;;;14.50;99.90;;;;;;5008510;28;20034;-79
2022/06/11 03:51:07;;;;;;;16.58;12.27;;;14.50;99.90;;;;;;5008485;28;20128;-79
2022/06/11 03:53:34;;;;;;;14.25;10.95;;;14.50;99.90;;;;;;5028705;28;20056;-80
2022/06/11 03:56:00;;;;;;;16.30;11.48;;;14.50;99.90;;;;;;5010469;28;20156;-80
2022/06/11 03:58:26;;;;;;;19.45;11.50;;;14.50;99.90;;;;;;5020953;28;20415;-79
2022/06/11 04:03:37;;;;;;;13.75;10.68;;;14.50;99.90;;;;;;5010586;28;20084;-80
2022/06/11 04:06:04;;;;;;;16.35;12.20;;;14.40;99.90;;;;;;5010435;28;20099;-79
2022/06/11 04:08:30;;;;;;;17.15;12.48;;;14.40;99.90;;;;;;5027930;28;20392;-79
2022/06/11 04:10:58;;;;;;;20.25;12.88;;;14.40;99.90;;;;;;5008135;28;20037;-81
2022/06/11 04:13:25;;;;;;;15.07;12.52;;;14.50;99.90;;;;;;5008313;28;20033;-79
2022/06/11 04:15:51;;;;;;;16.50;12.10;;;14.50;99.90;;;;;;5025674;28;20052;-79
2022/06/11 04:18:48;;;;;;;18.08;12.02;;;14.60;99.90;;;;;;5011246;28;20042;-80
2022/06/11 04:21:15;;;;;;;18.58;11.93;;;14.70;99.90;;;;;;5008002;28;20037;-79
2022/06/11 04:23:44;;;;;;;18.80;11.48;;;14.70;99.90;;;;;;5012199;28;20120;-80
2022/06/11 04:26:14;;;;;;;15.38;12.38;;;14.70;99.90;;;;;;5009809;28;20112;-79
2022/06/11 04:28:40;;;;;;;15.77;11.13;;;14.80;99.90;;;;;;5012756;28;20144;-79
2022/06/11 04:31:08;;;;;;;14.43;10.63;;;14.80;99.90;;;;;;5012907;28;20041;-80
2022/06/11 04:33:34;;;;;;;12.80;11.52;;;14.80;99.90;;;;;;5030793;28;20049;-78
2022/06/11 04:36:00;;;;;;;12.93;10.07;;;14.90;99.90;;;;;;5012888;28;20039;-79
2022/06/11 04:38:26;;;;;;;12.45;9.70;;;14.90;99.90;;;;;;5012266;28;20048;-79
2022/06/11 04:40:52;;;;;;;13.68;9.85;;;15.00;99.90;;;;;;5011179;28;20034;-80
2022/06/11 04:43:18;;;;;;;15.27;9.23;;;15.00;99.90;;;;;;5015573;28;20041;-79
2022/06/11 04:45:44;;;;;;;14.65;9.13;;;15.00;99.90;;;;;;5014615;28;20045;-79
2022/06/11 04:48:10;;;;;;;16.63;8.40;;;15.10;99.90;;;;;;5018396;28;20079;-79
2022/06/11 04:50:37;;;;;;;12.80;7.57;;;15.10;99.90;;;;;;5031843;28;20783;-82
2022/06/11 04:53:03;;;;;;;16.02;7.07;;;15.20;99.90;;;;;;5012507;28;20053;-79
2022/06/11 04:55:29;;;;;;;12.07;7.07;;;15.20;99.90;;;;;;4996955;28;20045;-78
2022/06/11 04:57:55;;;;;;;10.93;6.57;;;15.30;99.90;;;;;;5014775;28;20043;-78
2022/06/11 05:00:24;;;;;;;13.32;6.03;;;15.40;99.90;;;;;;5013880;28;20033;-78
2022/06/11 05:02:50;;;;;;;12.00;6.25;;;15.40;99.90;;;;;;5013909;28;20120;-78
2022/06/11 05:05:15;;;;;;;12.10;6.10;;;15.40;99.90;;;;;;5028950;28;20029;-79
2022/06/11 05:07:43;;;;;;;10.32;5.45;;;15.50;99.90;;;;;;5012747;28;20140;-79
2022/06/11 05:10:10;;;;;;;11.20;5.05;;;15.60;99.90;;;;;;5011690;28;20046;-81
2022/06/11 05:12:36;;;;;;;10.43;4.80;;;15.60;99.90;;;;;;5010989;28;20505;-79
2022/06/11 05:15:01;;;;;;;7.63;4.07;;;15.60;99.90;;;;;;5010742;28;20123;-79
2022/06/11 05:17:28;;;;;;;10.05;4.30;;;15.70;99.90;;;;;;5012492;28;20037;-79
2022/06/11 05:19:53;;;;;;;11.75;3.25;;;15.70;99.90;;;;;;5011536;28;20044;-79
2022/06/11 05:22:19;;;;;;;7.78;2.67;;;15.70;99.90;;;;;;5012666;28;20050;-79
2022/06/11 05:24:45;;;;;;;8.43;3.42;;;15.80;99.90;;;;;;5013113;28;20500;-81
2022/06/11 05:27:20;;;;;;;7.95;3.08;;;15.80;99.90;;;;;;5011779;28;20065;-78
2022/06/11 05:30:03;;;;;;;8.93;2.80;;;15.90;99.90;;;;;;5013628;28;20048;-79
2022/06/11 05:32:33;;;;;;;7.20;2.65;;;15.90;99.90;;;;;;5010265;28;20041;-80
2022/06/11 05:35:00;;;;;;;8.80;2.70;;;16.00;99.90;;;;;;4995116;28;20037;-79
2022/06/11 05:37:26;;;;;;;8.80;3.15;;;16.00;99.90;;;;;;5014751;28;20038;-79
2022/06/11 05:39:52;;;;;;;6.55;2.15;;;16.00;99.90;;;;;;4995199;28;20087;-79
2022/06/11 05:42:21;;;;;;;7.45;2.50;;;16.10;99.90;;;;;;5029299;28;20514;-79
2022/06/11 05:44:47;;;;;;;13.40;3.33;;;16.20;99.90;;;;;;5009883;28;20487;-79
2022/06/11 05:47:17;;;;;;;11.80;2.55;;;16.20;99.90;;;;;;5011442;28;20034;-78
2022/06/11 05:49:46;;;;;;;11.50;2.65;;;16.30;99.90;;;;;;5011227;28;20037;-78
2022/06/11 05:52:17;;;;;;;11.82;2.15;;;16.40;99.90;;;;;;5010360;28;20116;-79
2022/06/11 05:54:45;;;;;;;8.93;2.78;;;16.40;99.90;;;;;;5014346;28;20503;-79
2022/06/11 05:57:14;;;;;;;7.82;2.20;;;16.40;99.90;;;;;;5027364;28;20041;-79
2022/06/11 05:59:44;;;;;;;9.13;2.15;;;16.50;99.90;;;;;;5013422;28;20048;-79
2022/06/11 06:02:13;;;;;;;15.95;3.40;;;16.60;99.90;;;;;;5012064;28;20053;-79
2022/06/11 06:04:40;;;;;;;8.35;2.75;;;16.60;99.90;;;;;;4994755;28;20368;-80
2022/06/11 06:07:07;;;;;;;13.52;3.00;;;16.70;99.90;;;;;;5011823;28;20041;-79
2022/06/11 06:09:33;;;;;;;7.55;2.67;;;16.60;99.90;;;;;;5009847;28;20053;-79
2022/06/11 06:11:58;;;;;;;9.30;2.75;;;16.70;99.90;;;;;;5013020;28;20047;-79
2022/06/11 06:14:24;;;;;;;12.48;2.42;;;16.80;99.90;;;;;;5025666;28;20033;-78
2022/06/11 06:16:50;;;;;;;17.80;2.60;;;16.90;99.90;;;;;;5011321;28;20049;-79
2022/06/11 06:19:15;;;;;;;17.02;3.35;;;16.90;99.90;;;;;;5011443;28;20037;-83
2022/06/11 06:21:41;;;;;;;9.95;2.47;;;17.00;99.90;;;;;;5017418;28;20045;-79
2022/06/11 06:24:07;;;;;;;9.07;2.38;;;17.00;99.90;;;;;;5012539;28;20029;-79
2022/06/11 06:26:32;;;;;;;15.73;3.75;;;17.10;99.90;;;;;;5010215;28;20397;-78
2022/06/11 06:28:59;;;;;;;9.93;3.03;;;17.20;99.90;;;;;;5011391;28;20084;-79
2022/06/11 06:31:24;;;;;;;10.40;3.30;;;17.30;99.90;;;;;;4996207;28;20458;-79
2022/06/11 06:33:56;;;;;;;13.88;3.03;;;17.50;99.90;;;;;;5009270;28;20112;-80
2022/06/11 06:36:23;;;;;;;16.08;3.13;;;17.60;99.90;;;;;;5009536;28;20053;-80
2022/06/11 06:38:50;;;;;;;12.50;3.38;;;17.80;99.90;;;;;;5013455;28;20420;-78
2022/06/11 06:41:15;;;;;;;11.68;2.47;;;17.90;99.90;;;;;;5008928;28;20129;-79
2022/06/11 06:43:41;;;;;;;7.03;2.35;;;18.10;99.90;;;;;;5010094;28;20160;-79
2022/06/11 06:46:07;;;;;;;16.02;3.22;;;18.30;99.90;;;;;;5027930;28;20044;-79
2022/06/11 06:48:33;;;;;;;9.48;2.17;;;18.40;99.90;;;;;;5011419;28;20436;-80
2022/06/11 06:50:59;;;;;;;12.25;2.80;;;18.40;99.90;;;;;;5011217;28;20037;-79
2022/06/11 06:53:26;;;;;;;7.78;2.38;;;18.60;99.90;;;;;;5018399;28;20040;-79
2022/06/11 06:55:52;;;;;;;8.18;2.90;;;18.60;99.90;;;;;;5014599;28;20047;-79
2022/06/11 06:58:18;;;;;;;13.70;2.80;;;18.60;99.90;;;;;;5034025;28;20041;-81
2022/06/11 07:00:44;;;;;;;11.38;3.13;;;18.60;99.90;;;;;;5028302;28;20037;-79
2022/06/11 07:03:13;;;;;;;13.50;3.08;;;18.60;99.90;;;;;;5054904;28;20056;-79
2022/06/11 07:05:40;;;;;;;14.48;3.38;;;18.70;99.90;;;;;;5034780;28;20795;-78
2022/06/11 07:18:41;;;;;;;14.10;2.75;;;19.00;99.90;;;;;;5870898;22;20041;-87
2022/06/11 07:21:13;;;;;;;9.10;3.03;;;19.30;99.90;;;;;;5040592;28;20056;-87
2022/06/11 07:23:53;;;;;;;11.75;2.92;;;19.60;99.90;;;;;;5049962;28;20044;-86
2022/06/11 07:26:29;;;;;;;12.35;3.15;;;19.70;99.90;;;;;;5041176;28;20474;-86
2022/06/11 07:29:05;;;;;;;10.85;2.95;;;19.70;99.90;;;;;;5055332;28;20074;-84
2022/06/11 07:31:34;;;;;;;17.20;4.65;;;19.50;99.90;;;;;;5063393;28;20056;-86
2022/06/11 07:34:00;;;;;;;16.83;3.92;;;19.30;99.90;;;;;;5032254;28;20047;-86
2022/06/11 07:36:29;;;;;;;9.95;2.65;;;19.30;99.90;;;;;;5031774;28;20037;-85
2022/06/11 07:38:58;;;;;;;12.82;3.28;;;19.30;99.90;;;;;;5054292;28;20040;-86
2022/06/11 07:41:23;;;;;;;12.57;3.88;;;19.20;99.90;;;;;;5051668;28;20092;-86
2022/06/11 07:43:49;;;;;;;12.15;3.03;;;19.30;99.90;;;;;;5036008;28;20056;-85
2022/06/11 07:46:15;;;;;;;13.55;4.97;;;19.40;99.90;;;;;;5038800;28;20044;-84
2022/06/11 07:48:41;;;;;;;13.68;3.60;;;19.30;99.90;;;;;;5033476;28;20033;-84
2022/06/11 07:51:07;;;;;;;28.65;15.82;;;19.30;99.90;;;;;;5066919;28;20083;-85
2022/06/11 07:53:32;;;;;;;29.35;16.20;;;19.40;99.90;;;;;;5034788;28;20446;-85
2022/06/11 07:55:58;;;;;;;16.02;7.80;;;19.60;99.90;;;;;;5051726;28;20512;-84
2022/06/11 07:58:33;;;;;;;14.57;3.15;;;19.80;99.90;;;;;;5045235;28;20079;-85
2022/06/11 08:00:59;;;;;;;13.82;4.35;;;19.90;99.90;;;;;;5040957;28;20044;-84
2022/06/11 08:03:27;;;;;;;9.45;4.32;;;19.80;99.90;;;;;;5059410;28;20033;-84
2022/06/11 08:05:54;;;;;;;10.55;3.60;;;20.10;99.90;;;;;;5057974;28;20036;-84
2022/06/11 08:08:20;;;;;;;14.23;3.30;;;20.60;99.90;;;;;;5053623;28;20037;-84
2022/06/11 08:10:47;;;;;;;15.27;3.58;;;20.60;99.90;;;;;;5063788;28;20118;-84
2022/06/11 08:13:13;;;;;;;16.17;4.18;;;20.90;99.90;;;;;;5055519;28;20501;-84
2022/06/11 08:15:41;;;;;;;10.48;2.95;;;21.20;99.90;;;;;;5048605;28;20116;-82
2022/06/11 08:18:07;;;;;;;9.45;2.85;;;21.10;99.90;;;;;;5055365;28;20494;-84
2022/06/11 08:20:35;;;;;;;10.80;3.00;;;20.90;99.90;;;;;;5074603;28;20047;-82
2022/06/11 08:23:02;;;;;;;9.43;4.03;;;20.80;99.90;;;;;;5065520;28;20051;-82
2022/06/11 08:25:28;;;;;;;14.32;3.03;;;20.90;99.90;;;;;;5058053;28;20036;-81
2022/06/11 08:27:54;;;;;;;309.88;254.60;;;21.00;99.90;;;;;;5060541;28;20048;-82
2022/06/11 08:30:25;;;;;;;13.00;6.75;;;21.00;99.90;;;;;;5058326;28;20136;-82
2022/06/11 08:32:52;;;;;;;16.80;5.50;;;21.20;99.90;;;;;;5056048;28;20059;-84
2022/06/11 08:35:21;;;;;;;10.70;3.25;;;21.60;99.90;;;;;;5061470;28;20075;-82
2022/06/11 08:37:48;;;;;;;14.57;3.65;;;22.00;99.90;;;;;;5064097;28;20040;-82
2022/06/11 08:40:37;;;;;;;24.23;6.88;;;22.20;99.90;;;;;;5054772;28;20036;-80
2022/06/11 08:43:16;;;;;;;14.98;4.55;;;22.60;99.90;;;;;;5053539;28;20096;-80
2022/06/11 08:45:48;;;;;;;18.83;5.35;;;22.80;99.90;;;;;;5039270;28;20029;-81
2022/06/11 08:48:26;;;;;;;11.98;3.42;;;22.70;99.90;;;;;;5054473;28;20372;-80
2022/06/11 08:51:10;;;;;;;15.65;2.50;;;22.50;99.90;;;;;;5058354;28;20067;-80
2022/06/11 08:53:37;;;;;;;10.68;2.38;;;22.50;99.90;;;;;;5053583;28;20056;-83
2022/06/11 08:56:05;;;;;;;11.98;3.88;;;22.40;99.90;;;;;;5058248;28;20069;-83
2022/06/11 08:59:11;;;;;;;17.88;4.13;;;22.40;99.70;;;;;;5052699;28;20076;-81
2022/06/11 09:01:47;;;;;;;10.73;3.10;;;22.30;97.60;;;;;;5069619;28;20072;-82
2022/06/11 09:04:26;;;;;;;10.90;3.22;;;21.80;99.40;;;;;;5052662;28;20045;-80
2022/06/11 09:07:17;;;;;;;8.65;2.72;;;21.60;99.90;;;;;;5052963;28;20060;-81
2022/06/11 09:10:01;;;;;;;9.75;2.70;;;21.80;99.10;;;;;;5079799;28;20413;-81
2022/06/11 09:12:44;;;;;;;13.35;3.42;;;22.10;99.10;;;;;;5035876;28;20044;-82
2022/06/11 09:15:24;;;;;;;14.05;3.22;;;22.00;96.50;;;;;;5053460;28;20486;-82
2022/06/11 09:17:59;;;;;;;12.98;3.08;;;21.80;98.00;;;;;;5040608;28;20041;-82
2022/06/11 09:20:46;;;;;;;11.93;2.85;;;21.70;97.10;;;;;;5059588;28;20091;-81
2022/06/11 09:23:36;;;;;;;11.10;2.35;;;21.60;97.30;;;;;;5053342;28;20036;-82
2022/06/11 09:26:30;;;;;;;11.73;3.08;;;21.50;98.70;;;;;;5055555;28;20407;-83
2022/06/11 09:29:11;;;;;;;13.15;2.63;;;21.70;99.20;;;;;;5035046;28;20565;-82
2022/06/11 09:32:03;;;;;;;14.10;2.50;;;22.00;98.20;;;;;;5053954;28;20049;-82
2022/06/11 09:34:44;;;;;;;10.80;3.03;;;21.80;95.50;;;;;;5069895;28;20069;-81
2022/06/11 09:37:23;;;;;;;9.07;3.08;;;21.60;96.80;;;;;;5068471;28;20037;-82
2022/06/11 09:40:03;;;;;;;11.05;2.35;;;21.60;98.10;;;;;;5053504;28;20090;-83
2022/06/11 09:42:40;;;;;;;29.27;14.27;;;21.40;98.00;;;;;;5048685;28;20055;-83
2022/06/11 09:45:18;;;;;;;18.60;8.75;;;21.20;98.00;;;;;;5051330;28;20105;-82
2022/06/11 09:48:02;;;;;;;31.20;18.10;;;21.40;99.00;;;;;;5051073;28;20107;-82
2022/06/11 09:50:40;;;;;;;11.07;5.45;;;21.70;98.50;;;;;;5049967;28;20123;-82
2022/06/11 09:53:18;;;;;;;15.73;3.33;;;21.70;96.10;;;;;;5053460;28;20041;-82
2022/06/11 09:56:09;;;;;;;26.00;16.48;;;21.50;95.00;;;;;;5041462;28;20052;-82
2022/06/11 09:58:50;;;;;;;14.98;3.13;;;21.40;95.50;;;;;;5057987;28;20037;-83
2022/06/11 10:01:21;;;;;;;8.88;2.38;;;21.70;96.30;;;;;;5032326;28;20051;-82
2022/06/11 10:03:55;;;;;;;7.68;1.73;;;21.90;93.90;;;;;;5059730;28;20100;-83
2022/06/11 10:06:41;;;;;;;7.82;1.85;;;21.90;88.60;;;;;;5072973;28;20549;-82
2022/06/11 10:09:16;;;;;;;7.15;1.63;;;22.20;88.70;;;;;;5058350;28;20099;-83
2022/06/11 10:11:48;;;;;;;8.80;1.73;;;22.30;86.60;;;;;;5056151;28;20040;-83
2022/06/11 10:14:49;;;;;;;8.95;1.85;;;22.40;83.40;;;;;;5056991;28;20037;-84
2022/06/11 10:17:34;;;;;;;12.18;2.08;;;22.60;82.90;;;;;;5038594;28;20041;-83
2022/06/11 10:20:25;;;;;;;10.00;3.10;;;22.90;80.50;;;;;;5064969;28;20086;-82
2022/06/11 10:23:01;;;;;;;7.90;1.67;;;22.80;79.60;;;;;;5058614;28;20146;-82
2022/06/11 10:25:35;;;;;;;6.95;1.33;;;22.70;79.60;;;;;;5052986;28;20510;-84
2022/06/11 10:28:17;;;;;;;64.82;42.80;;;22.40;78.70;;;;;;5053641;28;20063;-84
2022/06/11 10:30:55;;;;;;;155.65;99.15;;;22.30;80.80;;;;;;5057395;28;20033;-83
2022/06/11 10:33:39;;;;;;;18.50;8.95;;;22.70;80.60;;;;;;5054389;28;20298;-84
2022/06/11 10:36:17;;;;;;;10.68;1.88;;;23.00;81.50;;;;;;5055436;28;20085;-81
2022/06/11 10:38:54;;;;;;;17.27;8.55;;;23.30;78.90;;;;;;5039334;28;20049;-83
2022/06/11 10:41:29;;;;;;;9.05;1.77;;;23.40;75.10;;;;;;5053796;28;20048;-85
2022/06/11 10:44:16;;;;;;;7.70;1.75;;;23.60;75.20;;;;;;5102362;27;20851;-82
2022/06/11 10:46:42;;;;;;;9.52;2.05;;;23.70;71.60;;;;;;5083058;28;20039;-85
2022/06/11 10:49:15;;;;;;;7.32;2.10;;;23.90;76.90;;;;;;5094215;28;20036;-82
2022/06/11 10:51:46;;;;;;;10.55;1.70;;;24.10;72.70;;;;;;5100489;28;20031;-83
2022/06/11 10:54:24;;;;;;;6.50;1.88;;;24.30;72.50;;;;;;5099104;28;20041;-84
2022/06/11 10:57:07;;;;;;;5.40;1.58;;;24.40;69.10;;;;;;5093027;28;20088;-82
2022/06/11 10:59:43;;;;;;;10.93;2.58;;;24.50;71.50;;;;;;5093098;28;20059;-82
2022/06/11 11:02:26;;;;;;;10.10;2.53;;;24.40;69.50;;;;;;5092557;28;20044;-83
2022/06/11 11:04:58;;;;;;;6.63;1.33;;;24.20;71.70;;;;;;5090015;28;20066;-83
2022/06/11 11:07:24;;;;;;;8.43;1.77;;;24.20;72.70;;;;;;5090449;28;20072;-82
2022/06/11 11:09:55;;;;;;;10.50;2.50;;;24.20;71.80;;;;;;5091133;28;20044;-83
2022/06/11 11:12:35;;;;;;;8.85;1.38;;;24.10;72.10;;;;;;5090711;28;20048;-83
2022/06/11 11:15:08;;;;;;;6.03;1.70;;;24.20;69.60;;;;;;5090601;28;20044;-83
2022/06/11 11:17:34;;;;;;;9.07;1.77;;;24.10;68.30;;;;;;5091388;28;20044;-83
2022/06/11 11:23:05;;;;;;;4.22;1.00;;;23.70;69.00;;;;;;5091464;28;20052;-83
2022/06/11 11:25:42;;;;;;;6.75;1.63;;;23.60;68.20;;;;;;5073957;28;20044;-81
2022/06/11 11:28:19;;;;;;;5.47;1.20;;;23.50;70.20;;;;;;5094157;28;20111;-83
2022/06/11 11:30:45;;;;;;;7.45;1.58;;;23.80;69.20;;;;;;5095456;28;20059;-83
2022/06/11 11:33:38;;;;;;;5.57;1.08;;;23.70;67.90;;;;;;5077039;28;20093;-82
2022/06/11 11:36:23;;;;;;;8.02;1.48;;;23.70;67.10;;;;;;5091875;28;20481;-84
2022/06/11 11:39:17;;;;;;;;;;;23.80;68.70;;;;;;5091705;28;20052;-83
2022/06/11 11:42:07;;;;;;;6.07;1.10;;;23.70;68.00;;;;;;5090528;28;19923;-83
2022/06/11 11:44:49;;;;;;;7.82;1.40;;;23.70;69.30;;;;;;5092336;28;20386;-84
2022/06/11 11:47:19;;;;;;;10.43;2.03;;;24.10;66.60;;;;;;5090586;28;20075;-83
2022/06/11 11:50:20;;;;;;;8.27;1.75;;;24.60;67.90;;;;;;5089629;28;20398;-83
2022/06/11 11:53:01;;;;;;;9.68;1.60;;;25.10;64.30;;;;;;5088233;28;20052;-83
2022/06/11 11:55:29;;;;;;;7.97;1.58;;;25.40;65.50;;;;;;5056241;28;20128;-83
2022/06/11 11:58:16;;;;;;;6.88;1.05;;;25.20;65.00;;;;;;5056374;28;20118;-83
2022/06/11 12:00:51;;;;;;;5.53;1.00;;;25.10;64.00;;;;;;5055817;28;20414;-83
2022/06/11 12:03:34;;;;;;;5.00;1.67;;;25.30;64.10;;;;;;5039251;28;20560;-83
2022/06/11 12:06:01;;;;;;;6.65;0.77;;;25.20;63.50;;;;;;5056121;28;20052;-83
2022/06/11 12:08:31;;;;;;;5.82;1.25;;;25.20;63.30;;;;;;5055401;28;20093;-83
2022/06/11 12:11:01;;;;;;;6.75;1.13;;;25.20;63.40;;;;;;5055639;28;20033;-82
2022/06/11 12:13:31;;;;;;;5.53;1.60;;;25.60;65.20;;;;;;5060358;28;20062;-81
2022/06/11 12:16:02;;;;;;;5.57;0.90;;;25.60;62.00;;;;;;5077509;28;20040;-83
2022/06/11 12:18:42;;;;;;;6.25;1.20;;;25.20;60.30;;;;;;5060755;28;20041;-83
2022/06/11 12:21:15;;;;;;;6.97;0.93;;;24.60;60.40;;;;;;5076595;28;20115;-82
2022/06/11 12:23:48;;;;;;;9.25;1.48;;;24.40;62.60;;;;;;5075837;28;20115;-82
2022/06/11 12:26:21;;;;;;;9.10;2.25;;;24.10;63.10;;;;;;5076930;28;20040;-82
2022/06/11 12:29:07;;;;;;;8.35;2.03;;;23.80;62.90;;;;;;5078143;28;20041;-82
2022/06/11 12:31:33;;;;;;;9.98;1.50;;;23.50;64.00;;;;;;5076370;28;20039;-83
2022/06/11 12:34:00;;;;;;;10.55;2.35;;;23.50;65.80;;;;;;5075088;28;20044;-84
2022/06/11 12:36:43;;;;;;;9.32;1.38;;;23.70;65.40;;;;;;5077368;28;20065;-82
2022/06/11 12:39:09;;;;;;;5.57;1.45;;;23.80;64.50;;;;;;5077689;28;20512;-82
2022/06/11 12:41:52;;;;;;;6.45;1.20;;;23.80;64.80;;;;;;5076434;28;20044;-83
2022/06/11 12:44:35;;;;;;;6.80;1.60;;;23.70;62.50;;;;;;5076835;28;20406;-82
2022/06/11 12:47:07;;;;;;;5.53;0.95;;;23.70;65.30;;;;;;5076202;28;20051;-83
2022/06/11 12:49:36;;;;;;;7.53;1.63;;;24.20;64.40;;;;;;5075574;28;20037;-82
2022/06/11 12:52:31;;;;;;;9.32;1.55;;;24.60;64.50;;;;;;5073613;28;20044;-83
2022/06/11 12:55:26;;;;;;;7.85;1.67;;;25.20;64.30;;;;;;5075847;28;20044;-82
2022/06/11 12:58:26;;;;;;;8.40;1.23;;;25.40;58.90;;;;;;5074734;28;20052;-83
2022/06/11 13:01:36;;;;;;;7.05;1.83;;;25.70;61.60;;;;;;5077844;28;20067;-83
2022/06/11 13:04:25;;;;;;;8.27;1.20;;;25.80;59.10;;;;;;5076438;28;20052;-83
2022/06/11 13:07:19;;;;;;;6.30;1.35;;;25.90;59.80;;;;;;5075887;28;20093;-82
2022/06/11 13:10:10;;;;;;;4.55;1.10;;;25.60;58.10;;;;;;5077431;28;20051;-83
2022/06/11 13:13:08;;;;;;;6.38;1.42;;;25.00;57.90;;;;;;5077612;28;20048;-82
2022/06/11 13:15:56;;;;;;;7.03;1.13;;;24.60;58.90;;;;;;5075551;28;20173;-82
2022/06/11 13:18:27;;;;;;;6.40;1.50;;;25.00;61.50;;;;;;5059854;28;20543;-82
2022/06/11 13:21:13;;;;;;;7.65;1.98;;;25.30;60.90;;;;;;5058477;28;20044;-82
2022/06/11 13:24:11;;;;;;;3.05;0.73;;;25.80;58.20;;;;;;5075833;28;20093;-83
2022/06/11 13:26:58;;;;;;;5.47;0.75;;;26.20;56.70;;;;;;5075078;28;20047;-83
2022/06/11 13:29:54;;;;;;;6.07;1.10;;;26.40;54.70;;;;;;5075524;28;20249;-82
2022/06/11 13:32:41;;;;;;;6.18;1.30;;;26.50;56.50;;;;;;5074682;28;20048;-83
2022/06/11 13:35:44;;;;;;;6.22;1.88;;;26.60;57.00;;;;;;5074580;28;20044;-82
2022/06/11 13:38:53;;;;;;;5.10;1.05;;;26.80;53.20;;;;;;5073458;28;20398;-83
2022/06/11 13:41:37;;;;;;;5.05;0.88;;;27.20;56.00;;;;;;5071491;28;20060;-83
2022/06/11 13:44:32;;;;;;;3.92;0.90;;;26.90;53.50;;;;;;5056914;28;20047;-83
2022/06/11 13:47:25;;;;;;;6.90;0.68;;;26.90;54.80;;;;;;5056584;28;20044;-83
2022/06/11 13:50:13;;;;;;;4.32;1.33;;;27.10;55.10;;;;;;5056261;28;20040;-83
2022/06/11 13:55:57;;;;;;;6.97;1.40;;;26.70;55.40;;;;;;5073090;28;20060;-83
2022/06/11 13:58:32;;;;;;;3.92;0.90;;;26.80;56.60;;;;;;5077515;28;20055;-81
2022/06/11 14:01:19;;;;;;;5.88;1.08;;;26.80;56.70;;;;;;5076967;28;20076;-82
2022/06/11 14:04:03;;;;;;;7.35;1.17;;;26.70;55.00;;;;;;5077571;28;20041;-81
2022/06/11 14:06:29;;;;;;;6.38;0.82;;;27.30;56.70;;;;;;5060735;28;20045;-83
2022/06/11 14:12:12;;;;;;;7.10;1.70;;;27.80;55.70;;;;;;5075900;28;20044;-81
2022/06/11 14:14:41;;;;;;;5.68;1.17;;;28.10;53.30;;;;;;5077460;28;20044;-81
2022/06/11 14:17:46;;;;;;;5.32;0.95;;;28.20;54.10;;;;;;5062170;28;20050;-83
2022/06/11 14:20:31;;;;;;;4.30;1.27;;;28.20;53.90;;;;;;5075118;28;20048;-82
2022/06/11 14:23:25;;;;;;;6.38;1.00;;;28.40;53.50;;;;;;5074914;28;20124;-85